Etusivu
METAR-TAF:

METAR-TAF

Lentoasemat :

Rovaniemi, Suomi

Rovaniemen lentoasema

Leveyspiiri: 66-34N, Pituuspiiri: 025-50E, korkeus merenpinnasta: 197 m

Tämänhetkinen sää

Tämä raportti tehtiin 24 minuuttia sitten, kello 15.20 UTC
Tuuli 5 kn idästä/kaakosta, vaihdellen idän ja etelän välillä
Lämpötila 8°C
Kosteus 76%
Ilmanpaine 1033 hPa
Näkyvyys 10 km tai enemmän
Hajonneita pilviä 3100 ft:n korkeudessa
Pilvistä 3600 ft:n korkeudessa

METAR: EFRO 211520Z AUTO 11005KT 080V170 9999 BKN031 OVC036 08/04 Q1033

Aika: 18:44 (15:44 UTC)

Sääennuste

Tämä raportti tehtiin 1 tunti ja 16 minuuttia sitten, kello 14.28 UTC
Ennuste voimassa 21. päivästä klo 15 UTC - 22. päivään klo 15 UTC
Tuuli 8 kn idästä/kaakosta
Näkyvyys 10 km tai enemmän
Hajonneita pilviä 2500 ft:n korkeudessa
Ajoittain
22. päivästä klo 03 UTC - 22. päivään klo 08 UTC
Hajonneita pilviä 800 ft:n korkeudessa

TAF: EFRO 211428Z 2115/2215 12008KT 9999 BKN025 TEMPO 2203/2208 BKN008

Säähavainnot ja -ennusteet yli 4000 lentoasemalta (METAR- ja TAF-raportit).

Käytössä olevat sääasemat on merkitty karttaan keltaisilla ja punaisilla pisteillä.

Aseta hiiri pisteen päälle nähdäksesi sääaseman nimen.

Klikkaa sitten nähdäksesi säähavainnot ja -ennusteet.

Kartan vaihtaminen: klikkaa mustalla rastilla varustettuja vihreitä pisteitä, niin voit zoomata sisään; viivalla varustettua vihreää pistettä, niin voit zoomata ulos tai vihreitä nuolia, niin pääset viereisille kartoille.


METAR-TAF: